sensor_id;sensor_type;location;lat;lon;timestamp;P1;durP1;ratioP1;P2;durP2;ratioP2
45836;SDS011;31548;51.420;-0.040;2023-03-14T00:00:58;29.13;;;3.00;;
45836;SDS011;31548;51.420;-0.040;2023-03-14T00:03:27;24.40;;;2.80;;
45836;SDS011;31548;51.420;-0.040;2023-03-14T00:05:55;26.15;;;3.60;;
45836;SDS011;31548;51.420;-0.040;2023-03-14T00:08:22;23.13;;;2.75;;
45836;SDS011;31548;51.420;-0.040;2023-03-14T00:10:51;34.17;;;3.15;;
45836;SDS011;31548;51.420;-0.040;2023-03-14T00:13:18;30.45;;;2.90;;
45836;SDS011;31548;51.420;-0.040;2023-03-14T00:15:45;29.15;;;3.08;;
45836;SDS011;31548;51.420;-0.040;2023-03-14T00:18:13;30.92;;;3.13;;
45836;SDS011;31548;51.420;-0.040;2023-03-14T00:20:40;24.92;;;2.38;;
45836;SDS011;31548;51.420;-0.040;2023-03-14T00:23:07;32.30;;;3.33;;
45836;SDS011;31548;51.420;-0.040;2023-03-14T00:25:35;26.25;;;3.20;;
45836;SDS011;31548;51.420;-0.040;2023-03-14T00:28:02;30.10;;;2.75;;
45836;SDS011;31548;51.420;-0.040;2023-03-14T00:30:29;19.45;;;2.17;;
45836;SDS011;31548;51.420;-0.040;2023-03-14T00:32:56;21.65;;;2.10;;
45836;SDS011;31548;51.420;-0.040;2023-03-14T00:35:24;17.58;;;2.42;;
45836;SDS011;31548;51.420;-0.040;2023-03-14T00:37:52;21.92;;;2.78;;
45836;SDS011;31548;51.420;-0.040;2023-03-14T00:40:19;14.43;;;1.50;;
45836;SDS011;31548;51.420;-0.040;2023-03-14T00:42:48;16.17;;;1.63;;
45836;SDS011;31548;51.420;-0.040;2023-03-14T00:45:15;13.85;;;1.17;;
45836;SDS011;31548;51.420;-0.040;2023-03-14T00:47:42;11.68;;;1.27;;
45836;SDS011;31548;51.420;-0.040;2023-03-14T00:50:12;14.38;;;1.58;;
45836;SDS011;31548;51.420;-0.040;2023-03-14T00:52:39;17.10;;;1.83;;
45836;SDS011;31548;51.420;-0.040;2023-03-14T00:55:08;9.68;;;0.95;;
45836;SDS011;31548;51.420;-0.040;2023-03-14T00:57:35;13.77;;;1.33;;
45836;SDS011;31548;51.420;-0.040;2023-03-14T01:00:03;10.32;;;1.10;;
45836;SDS011;31548;51.420;-0.040;2023-03-14T01:02:32;5.85;;;0.77;;
45836;SDS011;31548;51.420;-0.040;2023-03-14T01:05:00;9.93;;;1.25;;
45836;SDS011;31548;51.420;-0.040;2023-03-14T01:07:28;12.23;;;1.55;;
45836;SDS011;31548;51.420;-0.040;2023-03-14T01:09:55;12.48;;;1.67;;
45836;SDS011;31548;51.420;-0.040;2023-03-14T01:12:22;8.10;;;1.02;;
45836;SDS011;31548;51.420;-0.040;2023-03-14T01:14:49;15.88;;;1.52;;
45836;SDS011;31548;51.420;-0.040;2023-03-14T01:17:17;12.02;;;1.50;;
45836;SDS011;31548;51.420;-0.040;2023-03-14T01:19:44;14.68;;;1.10;;
45836;SDS011;31548;51.420;-0.040;2023-03-14T01:22:11;9.55;;;1.20;;
45836;SDS011;31548;51.420;-0.040;2023-03-14T01:24:38;8.13;;;0.60;;
45836;SDS011;31548;51.420;-0.040;2023-03-14T01:27:06;7.47;;;0.60;;
45836;SDS011;31548;51.420;-0.040;2023-03-14T01:29:33;4.07;;;0.65;;
45836;SDS011;31548;51.420;-0.040;2023-03-14T01:32:00;1.55;;;0.30;;
45836;SDS011;31548;51.420;-0.040;2023-03-14T01:34:28;3.65;;;0.38;;
45836;SDS011;31548;51.420;-0.040;2023-03-14T01:36:55;0.15;;;0.10;;
45836;SDS011;31548;51.420;-0.040;2023-03-14T01:39:22;2.17;;;0.20;;
45836;SDS011;31548;51.420;-0.040;2023-03-14T01:41:49;0.52;;;0.10;;
45836;SDS011;31548;51.420;-0.040;2023-03-14T01:44:17;2.13;;;0.22;;
45836;SDS011;31548;51.420;-0.040;2023-03-14T01:46:44;0.10;;;0.10;;
45836;SDS011;31548;51.420;-0.040;2023-03-14T01:49:26;0.68;;;0.20;;
45836;SDS011;31548;51.420;-0.040;2023-03-14T01:52:02;2.05;;;0.10;;
45836;SDS011;31548;51.420;-0.040;2023-03-14T01:54:39;0.65;;;0.30;;
45836;SDS011;31548;51.420;-0.040;2023-03-14T01:59:58;0.68;;;0.20;;
45836;SDS011;31548;51.420;-0.040;2023-03-14T02:02:45;2.80;;;0.10;;
45836;SDS011;31548;51.420;-0.040;2023-03-14T02:05:18;1.55;;;0.20;;
45836;SDS011;31548;51.420;-0.040;2023-03-14T02:07:58;1.17;;;0.17;;
45836;SDS011;31548;51.420;-0.040;2023-03-14T02:10:32;2.42;;;0.10;;
45836;SDS011;31548;51.420;-0.040;2023-03-14T02:13:03;1.45;;;0.20;;
45836;SDS011;31548;51.420;-0.040;2023-03-14T02:15:46;0.30;;;0.10;;
45836;SDS011;31548;51.420;-0.040;2023-03-14T02:18:33;2.88;;;0.17;;
45836;SDS011;31548;51.420;-0.040;2023-03-14T02:24:01;1.85;;;0.28;;
45836;SDS011;31548;51.420;-0.040;2023-03-14T02:32:22;3.25;;;0.20;;
45836;SDS011;31548;51.420;-0.040;2023-03-14T02:34:52;0.90;;;0.47;;
45836;SDS011;31548;51.420;-0.040;2023-03-14T02:37:25;1.92;;;0.30;;
45836;SDS011;31548;51.420;-0.040;2023-03-14T02:40:10;2.25;;;0.20;;
45836;SDS011;31548;51.420;-0.040;2023-03-14T02:42:38;1.25;;;0.30;;
45836;SDS011;31548;51.420;-0.040;2023-03-14T02:47:44;1.77;;;0.40;;
45836;SDS011;31548;51.420;-0.040;2023-03-14T02:50:24;0.70;;;0.30;;
45836;SDS011;31548;51.420;-0.040;2023-03-14T02:52:55;2.30;;;0.20;;
45836;SDS011;31548;51.420;-0.040;2023-03-14T02:55:23;1.83;;;0.32;;
45836;SDS011;31548;51.420;-0.040;2023-03-14T02:57:56;4.30;;;0.20;;
45836;SDS011;31548;51.420;-0.040;2023-03-14T03:00:24;1.77;;;0.28;;
45836;SDS011;31548;51.420;-0.040;2023-03-14T03:02:51;1.08;;;0.22;;
45836;SDS011;31548;51.420;-0.040;2023-03-14T03:05:19;1.17;;;0.30;;
45836;SDS011;31548;51.420;-0.040;2023-03-14T03:07:46;0.80;;;0.20;;
45836;SDS011;31548;51.420;-0.040;2023-03-14T03:10:13;5.13;;;0.30;;
45836;SDS011;31548;51.420;-0.040;2023-03-14T03:12:41;2.88;;;0.20;;
45836;SDS011;31548;51.420;-0.040;2023-03-14T03:15:10;3.20;;;0.22;;
45836;SDS011;31548;51.420;-0.040;2023-03-14T03:17:37;3.45;;;0.20;;
45836;SDS011;31548;51.420;-0.040;2023-03-14T03:20:05;1.10;;;0.20;;
45836;SDS011;31548;51.420;-0.040;2023-03-14T03:22:38;4.95;;;0.20;;
45836;SDS011;31548;51.420;-0.040;2023-03-14T03:25:06;4.05;;;0.30;;
45836;SDS011;31548;51.420;-0.040;2023-03-14T03:27:35;0.85;;;0.20;;
45836;SDS011;31548;51.420;-0.040;2023-03-14T03:30:04;2.25;;;0.28;;
45836;SDS011;31548;51.420;-0.040;2023-03-14T03:32:34;0.77;;;0.20;;
45836;SDS011;31548;51.420;-0.040;2023-03-14T03:35:03;1.42;;;0.20;;
45836;SDS011;31548;51.420;-0.040;2023-03-14T03:37:34;1.92;;;0.30;;
45836;SDS011;31548;51.420;-0.040;2023-03-14T03:40:04;1.92;;;0.30;;
45836;SDS011;31548;51.420;-0.040;2023-03-14T03:42:34;2.08;;;0.30;;
45836;SDS011;31548;51.420;-0.040;2023-03-14T03:45:03;0.82;;;0.22;;
45836;SDS011;31548;51.420;-0.040;2023-03-14T03:47:34;4.38;;;0.28;;
45836;SDS011;31548;51.420;-0.040;2023-03-14T03:50:02;1.95;;;0.30;;
45836;SDS011;31548;51.420;-0.040;2023-03-14T03:52:31;1.00;;;0.20;;
45836;SDS011;31548;51.420;-0.040;2023-03-14T03:54:58;4.05;;;0.30;;
45836;SDS011;31548;51.420;-0.040;2023-03-14T03:57:27;3.40;;;0.20;;
45836;SDS011;31548;51.420;-0.040;2023-03-14T03:59:55;2.33;;;0.30;;
45836;SDS011;31548;51.420;-0.040;2023-03-14T04:02:23;1.25;;;0.13;;
45836;SDS011;31548;51.420;-0.040;2023-03-14T04:04:50;1.17;;;0.20;;
45836;SDS011;31548;51.420;-0.040;2023-03-14T04:07:18;3.90;;;0.38;;
45836;SDS011;31548;51.420;-0.040;2023-03-14T04:09:45;2.28;;;0.40;;
45836;SDS011;31548;51.420;-0.040;2023-03-14T04:12:39;5.03;;;0.20;;
45836;SDS011;31548;51.420;-0.040;2023-03-14T04:15:11;4.32;;;0.77;;
45836;SDS011;31548;51.420;-0.040;2023-03-14T04:17:43;7.63;;;0.40;;
45836;SDS011;31548;51.420;-0.040;2023-03-14T04:20:13;4.50;;;0.60;;
45836;SDS011;31548;51.420;-0.040;2023-03-14T04:22:40;2.47;;;0.43;;
45836;SDS011;31548;51.420;-0.040;2023-03-14T04:25:10;4.55;;;0.40;;
45836;SDS011;31548;51.420;-0.040;2023-03-14T04:27:43;4.28;;;0.40;;
45836;SDS011;31548;51.420;-0.040;2023-03-14T04:30:17;1.90;;;0.40;;
45836;SDS011;31548;51.420;-0.040;2023-03-14T04:32:50;3.70;;;0.30;;
45836;SDS011;31548;51.420;-0.040;2023-03-14T04:35:19;5.18;;;0.40;;
45836;SDS011;31548;51.420;-0.040;2023-03-14T04:37:47;5.07;;;0.30;;
45836;SDS011;31548;51.420;-0.040;2023-03-14T04:40:16;5.10;;;0.50;;
45836;SDS011;31548;51.420;-0.040;2023-03-14T04:42:45;4.90;;;0.50;;
45836;SDS011;31548;51.420;-0.040;2023-03-14T04:45:13;6.35;;;0.50;;
45836;SDS011;31548;51.420;-0.040;2023-03-14T04:47:41;8.02;;;0.68;;
45836;SDS011;31548;51.420;-0.040;2023-03-14T04:50:12;12.35;;;0.93;;
45836;SDS011;31548;51.420;-0.040;2023-03-14T04:52:40;6.15;;;0.57;;
45836;SDS011;31548;51.420;-0.040;2023-03-14T04:55:07;6.10;;;0.60;;
45836;SDS011;31548;51.420;-0.040;2023-03-14T04:57:35;12.10;;;0.80;;
45836;SDS011;31548;51.420;-0.040;2023-03-14T05:00:03;7.63;;;0.43;;
45836;SDS011;31548;51.420;-0.040;2023-03-14T05:02:54;9.00;;;0.80;;
45836;SDS011;31548;51.420;-0.040;2023-03-14T05:05:51;4.88;;;0.50;;
45836;SDS011;31548;51.420;-0.040;2023-03-14T05:08:36;12.63;;;0.73;;
45836;SDS011;31548;51.420;-0.040;2023-03-14T05:11:26;7.45;;;0.50;;
45836;SDS011;31548;51.420;-0.040;2023-03-14T05:14:05;10.85;;;0.60;;
45836;SDS011;31548;51.420;-0.040;2023-03-14T05:16:51;5.13;;;0.60;;
45836;SDS011;31548;51.420;-0.040;2023-03-14T05:19:41;4.13;;;0.40;;
45836;SDS011;31548;51.420;-0.040;2023-03-14T05:22:11;6.20;;;0.50;;
45836;SDS011;31548;51.420;-0.040;2023-03-14T05:25:01;5.57;;;0.85;;
45836;SDS011;31548;51.420;-0.040;2023-03-14T05:27:54;5.43;;;0.73;;
45836;SDS011;31548;51.420;-0.040;2023-03-14T05:30:38;8.10;;;0.53;;
45836;SDS011;31548;51.420;-0.040;2023-03-14T05:33:40;5.28;;;0.60;;
45836;SDS011;31548;51.420;-0.040;2023-03-14T05:36:17;4.07;;;0.45;;
45836;SDS011;31548;51.420;-0.040;2023-03-14T05:38:56;13.13;;;0.93;;
45836;SDS011;31548;51.420;-0.040;2023-03-14T05:41:26;5.85;;;0.50;;
45836;SDS011;31548;51.420;-0.040;2023-03-14T05:44:15;8.43;;;0.60;;
45836;SDS011;31548;51.420;-0.040;2023-03-14T05:46:57;9.73;;;0.63;;
45836;SDS011;31548;51.420;-0.040;2023-03-14T05:49:27;6.95;;;2.38;;
45836;SDS011;31548;51.420;-0.040;2023-03-14T05:51:58;7.80;;;0.57;;
45836;SDS011;31548;51.420;-0.040;2023-03-14T05:54:44;7.45;;;0.60;;
45836;SDS011;31548;51.420;-0.040;2023-03-14T05:57:17;6.63;;;0.40;;
45836;SDS011;31548;51.420;-0.040;2023-03-14T06:00:11;5.65;;;1.13;;
45836;SDS011;31548;51.420;-0.040;2023-03-14T06:02:45;6.22;;;0.75;;
45836;SDS011;31548;51.420;-0.040;2023-03-14T06:05:20;16.17;;;0.85;;
45836;SDS011;31548;51.420;-0.040;2023-03-14T06:07:52;10.75;;;0.60;;
45836;SDS011;31548;51.420;-0.040;2023-03-14T06:10:19;10.27;;;0.80;;
45836;SDS011;31548;51.420;-0.040;2023-03-14T06:12:47;8.25;;;0.47;;
45836;SDS011;31548;51.420;-0.040;2023-03-14T06:15:15;7.20;;;0.60;;
45836;SDS011;31548;51.420;-0.040;2023-03-14T06:17:45;2.15;;;0.43;;
45836;SDS011;31548;51.420;-0.040;2023-03-14T06:20:13;4.85;;;0.40;;
45836;SDS011;31548;51.420;-0.040;2023-03-14T06:22:40;5.60;;;0.80;;
45836;SDS011;31548;51.420;-0.040;2023-03-14T06:25:11;7.00;;;0.70;;
45836;SDS011;31548;51.420;-0.040;2023-03-14T06:27:39;7.85;;;0.90;;
45836;SDS011;31548;51.420;-0.040;2023-03-14T06:30:06;8.43;;;0.70;;
45836;SDS011;31548;51.420;-0.040;2023-03-14T06:32:35;9.52;;;0.68;;
45836;SDS011;31548;51.420;-0.040;2023-03-14T06:35:06;9.88;;;0.60;;
45836;SDS011;31548;51.420;-0.040;2023-03-14T06:37:39;7.07;;;0.70;;
45836;SDS011;31548;51.420;-0.040;2023-03-14T06:40:07;9.50;;;0.80;;
45836;SDS011;31548;51.420;-0.040;2023-03-14T06:42:49;9.02;;;0.50;;
45836;SDS011;31548;51.420;-0.040;2023-03-14T06:45:17;11.02;;;0.50;;
45836;SDS011;31548;51.420;-0.040;2023-03-14T06:47:45;13.85;;;1.25;;
45836;SDS011;31548;51.420;-0.040;2023-03-14T06:50:14;8.07;;;0.60;;
45836;SDS011;31548;51.420;-0.040;2023-03-14T06:52:47;8.88;;;0.60;;
45836;SDS011;31548;51.420;-0.040;2023-03-14T06:55:19;5.50;;;1.10;;
45836;SDS011;31548;51.420;-0.040;2023-03-14T06:57:49;7.00;;;0.80;;
45836;SDS011;31548;51.420;-0.040;2023-03-14T07:00:16;10.02;;;0.70;;
45836;SDS011;31548;51.420;-0.040;2023-03-14T07:02:44;7.60;;;1.23;;
45836;SDS011;31548;51.420;-0.040;2023-03-14T07:05:26;6.97;;;0.70;;
45836;SDS011;31548;51.420;-0.040;2023-03-14T07:07:54;12.68;;;1.35;;
45836;SDS011;31548;51.420;-0.040;2023-03-14T07:10:22;9.32;;;0.98;;
45836;SDS011;31548;51.420;-0.040;2023-03-14T07:12:50;8.65;;;0.60;;
45836;SDS011;31548;51.420;-0.040;2023-03-14T07:15:22;12.38;;;0.70;;
45836;SDS011;31548;51.420;-0.040;2023-03-14T07:17:55;8.52;;;0.52;;
45836;SDS011;31548;51.420;-0.040;2023-03-14T07:20:33;9.75;;;0.90;;
45836;SDS011;31548;51.420;-0.040;2023-03-14T07:23:01;6.20;;;0.70;;
45836;SDS011;31548;51.420;-0.040;2023-03-14T07:25:44;14.98;;;1.13;;
45836;SDS011;31548;51.420;-0.040;2023-03-14T07:28:13;9.40;;;0.77;;
45836;SDS011;31548;51.420;-0.040;2023-03-14T07:30:42;5.97;;;0.60;;
45836;SDS011;31548;51.420;-0.040;2023-03-14T07:33:18;5.72;;;0.70;;
45836;SDS011;31548;51.420;-0.040;2023-03-14T07:35:49;12.57;;;1.20;;
45836;SDS011;31548;51.420;-0.040;2023-03-14T07:38:17;6.07;;;0.70;;
45836;SDS011;31548;51.420;-0.040;2023-03-14T07:41:23;8.75;;;0.70;;
45836;SDS011;31548;51.420;-0.040;2023-03-14T07:44:17;8.02;;;0.60;;
45836;SDS011;31548;51.420;-0.040;2023-03-14T07:46:44;3.50;;;0.60;;
45836;SDS011;31548;51.420;-0.040;2023-03-14T07:49:11;6.18;;;1.33;;
45836;SDS011;31548;51.420;-0.040;2023-03-14T07:51:38;4.28;;;0.55;;
45836;SDS011;31548;51.420;-0.040;2023-03-14T07:54:05;5.00;;;0.60;;
45836;SDS011;31548;51.420;-0.040;2023-03-14T07:56:33;8.80;;;1.20;;
45836;SDS011;31548;51.420;-0.040;2023-03-14T07:59:00;1.80;;;0.38;;
45836;SDS011;31548;51.420;-0.040;2023-03-14T08:01:28;2.60;;;0.40;;
45836;SDS011;31548;51.420;-0.040;2023-03-14T08:03:55;2.22;;;0.40;;
45836;SDS011;31548;51.420;-0.040;2023-03-14T08:06:26;4.20;;;0.50;;
45836;SDS011;31548;51.420;-0.040;2023-03-14T08:08:53;6.13;;;0.40;;
45836;SDS011;31548;51.420;-0.040;2023-03-14T08:11:20;6.18;;;0.40;;
45836;SDS011;31548;51.420;-0.040;2023-03-14T08:13:51;5.63;;;0.50;;
45836;SDS011;31548;51.420;-0.040;2023-03-14T08:16:19;5.05;;;1.40;;
45836;SDS011;31548;51.420;-0.040;2023-03-14T08:18:46;1.63;;;0.40;;
45836;SDS011;31548;51.420;-0.040;2023-03-14T08:21:14;1.60;;;0.35;;
45836;SDS011;31548;51.420;-0.040;2023-03-14T08:23:41;0.63;;;0.30;;
45836;SDS011;31548;51.420;-0.040;2023-03-14T08:26:08;1.27;;;0.32;;
45836;SDS011;31548;51.420;-0.040;2023-03-14T08:28:35;1.83;;;0.20;;
45836;SDS011;31548;51.420;-0.040;2023-03-14T08:31:03;2.55;;;0.30;;
45836;SDS011;31548;51.420;-0.040;2023-03-14T08:33:31;1.25;;;0.20;;
45836;SDS011;31548;51.420;-0.040;2023-03-14T08:35:59;6.32;;;0.40;;
45836;SDS011;31548;51.420;-0.040;2023-03-14T08:38:27;2.63;;;0.30;;
45836;SDS011;31548;51.420;-0.040;2023-03-14T08:40:55;1.45;;;0.35;;
45836;SDS011;31548;51.420;-0.040;2023-03-14T08:43:27;5.05;;;0.30;;
45836;SDS011;31548;51.420;-0.040;2023-03-14T08:45:59;0.95;;;0.32;;
45836;SDS011;31548;51.420;-0.040;2023-03-14T08:48:28;2.47;;;0.30;;
45836;SDS011;31548;51.420;-0.040;2023-03-14T08:50:56;1.17;;;0.30;;
45836;SDS011;31548;51.420;-0.040;2023-03-14T08:53:30;0.90;;;0.40;;
45836;SDS011;31548;51.420;-0.040;2023-03-14T08:55:57;4.45;;;0.63;;
45836;SDS011;31548;51.420;-0.040;2023-03-14T08:58:25;2.05;;;0.20;;
45836;SDS011;31548;51.420;-0.040;2023-03-14T09:00:53;0.95;;;0.30;;
45836;SDS011;31548;51.420;-0.040;2023-03-14T09:03:20;2.45;;;0.20;;
45836;SDS011;31548;51.420;-0.040;2023-03-14T09:05:50;0.30;;;0.20;;
45836;SDS011;31548;51.420;-0.040;2023-03-14T09:08:17;0.90;;;0.30;;
45836;SDS011;31548;51.420;-0.040;2023-03-14T09:10:45;0.20;;;0.17;;
45836;SDS011;31548;51.420;-0.040;2023-03-14T09:13:15;0.20;;;0.20;;
45836;SDS011;31548;51.420;-0.040;2023-03-14T09:15:42;0.55;;;0.20;;
45836;SDS011;31548;51.420;-0.040;2023-03-14T09:18:09;0.43;;;0.30;;
45836;SDS011;31548;51.420;-0.040;2023-03-14T09:20:36;0.20;;;0.20;;
45836;SDS011;31548;51.420;-0.040;2023-03-14T09:23:04;0.88;;;0.30;;
45836;SDS011;31548;51.420;-0.040;2023-03-14T09:25:31;2.17;;;0.30;;
45836;SDS011;31548;51.420;-0.040;2023-03-14T09:27:58;1.05;;;0.20;;
45836;SDS011;31548;51.420;-0.040;2023-03-14T09:30:25;1.38;;;0.20;;
45836;SDS011;31548;51.420;-0.040;2023-03-14T09:32:52;1.50;;;0.30;;
45836;SDS011;31548;51.420;-0.040;2023-03-14T09:35:20;2.25;;;0.20;;
45836;SDS011;31548;51.420;-0.040;2023-03-14T09:37:47;2.88;;;0.38;;
45836;SDS011;31548;51.420;-0.040;2023-03-14T09:40:15;1.88;;;0.30;;
45836;SDS011;31548;51.420;-0.040;2023-03-14T09:42:44;3.90;;;0.40;;
45836;SDS011;31548;51.420;-0.040;2023-03-14T09:45:35;2.15;;;0.50;;
45836;SDS011;31548;51.420;-0.040;2023-03-14T09:48:03;5.18;;;0.43;;
45836;SDS011;31548;51.420;-0.040;2023-03-14T09:50:35;6.60;;;0.50;;
45836;SDS011;31548;51.420;-0.040;2023-03-14T09:53:08;8.48;;;0.80;;
45836;SDS011;31548;51.420;-0.040;2023-03-14T09:55:43;2.08;;;0.40;;
45836;SDS011;31548;51.420;-0.040;2023-03-14T09:58:14;5.15;;;0.85;;
45836;SDS011;31548;51.420;-0.040;2023-03-14T10:00:44;4.50;;;0.50;;
45836;SDS011;31548;51.420;-0.040;2023-03-14T10:05:40;4.65;;;0.90;;
45836;SDS011;31548;51.420;-0.040;2023-03-14T10:08:11;5.97;;;0.70;;
45836;SDS011;31548;51.420;-0.040;2023-03-14T10:10:39;5.50;;;0.55;;
45836;SDS011;31548;51.420;-0.040;2023-03-14T10:13:15;5.68;;;0.70;;
45836;SDS011;31548;51.420;-0.040;2023-03-14T10:15:51;7.82;;;0.80;;
45836;SDS011;31548;51.420;-0.040;2023-03-14T10:18:20;5.10;;;0.77;;
45836;SDS011;31548;51.420;-0.040;2023-03-14T10:20:49;9.15;;;0.70;;
45836;SDS011;31548;51.420;-0.040;2023-03-14T10:23:29;9.07;;;0.60;;
45836;SDS011;31548;51.420;-0.040;2023-03-14T10:28:45;6.97;;;0.70;;
45836;SDS011;31548;51.420;-0.040;2023-03-14T10:31:15;8.35;;;1.02;;
45836;SDS011;31548;51.420;-0.040;2023-03-14T10:33:43;9.30;;;0.80;;
45836;SDS011;31548;51.420;-0.040;2023-03-14T10:36:31;6.15;;;0.55;;
45836;SDS011;31548;51.420;-0.040;2023-03-14T10:41:53;2.20;;;0.40;;
45836;SDS011;31548;51.420;-0.040;2023-03-14T10:44:25;3.50;;;0.50;;
45836;SDS011;31548;51.420;-0.040;2023-03-14T10:46:55;4.22;;;0.45;;
45836;SDS011;31548;51.420;-0.040;2023-03-14T10:49:30;7.28;;;0.50;;
45836;SDS011;31548;51.420;-0.040;2023-03-14T10:52:01;2.13;;;0.32;;
45836;SDS011;31548;51.420;-0.040;2023-03-14T10:54:40;1.45;;;0.30;;
45836;SDS011;31548;51.420;-0.040;2023-03-14T10:57:07;7.25;;;0.60;;
45836;SDS011;31548;51.420;-0.040;2023-03-14T10:59:39;2.75;;;0.30;;
45836;SDS011;31548;51.420;-0.040;2023-03-14T11:05:11;5.53;;;0.60;;
45836;SDS011;31548;51.420;-0.040;2023-03-14T11:10:32;3.45;;;0.50;;
45836;SDS011;31548;51.420;-0.040;2023-03-14T11:31:59;19.45;;;0.70;;
45836;SDS011;31548;51.420;-0.040;2023-03-14T11:34:40;6.55;;;0.57;;
45836;SDS011;31548;51.420;-0.040;2023-03-14T11:37:29;8.63;;;1.27;;
45836;SDS011;31548;51.420;-0.040;2023-03-14T11:42:44;7.05;;;0.70;;
45836;SDS011;31548;51.420;-0.040;2023-03-14T11:45:23;8.60;;;0.57;;
45836;SDS011;31548;51.420;-0.040;2023-03-14T11:48:06;9.52;;;0.80;;
45836;SDS011;31548;51.420;-0.040;2023-03-14T11:50:34;14.85;;;0.88;;
45836;SDS011;31548;51.420;-0.040;2023-03-14T11:53:09;8.93;;;0.60;;
45836;SDS011;31548;51.420;-0.040;2023-03-14T11:55:44;8.77;;;0.88;;
45836;SDS011;31548;51.420;-0.040;2023-03-14T12:00:50;8.73;;;0.93;;
45836;SDS011;31548;51.420;-0.040;2023-03-14T12:03:32;9.07;;;0.90;;
45836;SDS011;31548;51.420;-0.040;2023-03-14T12:06:13;6.63;;;0.70;;
45836;SDS011;31548;51.420;-0.040;2023-03-14T12:08:49;11.63;;;0.70;;
45836;SDS011;31548;51.420;-0.040;2023-03-14T12:11:33;9.88;;;1.00;;
45836;SDS011;31548;51.420;-0.040;2023-03-14T12:14:16;8.98;;;1.02;;
45836;SDS011;31548;51.420;-0.040;2023-03-14T12:16:47;9.38;;;0.93;;
45836;SDS011;31548;51.420;-0.040;2023-03-14T12:19:24;5.43;;;0.82;;
45836;SDS011;31548;51.420;-0.040;2023-03-14T12:21:56;7.80;;;1.00;;
45836;SDS011;31548;51.420;-0.040;2023-03-14T12:24:29;10.90;;;1.30;;
45836;SDS011;31548;51.420;-0.040;2023-03-14T12:26:59;8.77;;;0.75;;
45836;SDS011;31548;51.420;-0.040;2023-03-14T12:29:28;5.20;;;0.80;;
45836;SDS011;31548;51.420;-0.040;2023-03-14T12:34:42;5.43;;;1.38;;
45836;SDS011;31548;51.420;-0.040;2023-03-14T12:37:14;7.75;;;0.55;;
45836;SDS011;31548;51.420;-0.040;2023-03-14T12:40:01;6.05;;;0.80;;
45836;SDS011;31548;51.420;-0.040;2023-03-14T12:45:25;11.48;;;1.00;;
45836;SDS011;31548;51.420;-0.040;2023-03-14T12:48:30;10.48;;;0.88;;
45836;SDS011;31548;51.420;-0.040;2023-03-14T12:56:25;15.75;;;0.77;;
45836;SDS011;31548;51.420;-0.040;2023-03-14T13:04:34;6.75;;;0.52;;
45836;SDS011;31548;51.420;-0.040;2023-03-14T13:12:28;4.13;;;0.45;;
45836;SDS011;31548;51.420;-0.040;2023-03-14T13:15:01;5.57;;;0.50;;
45836;SDS011;31548;51.420;-0.040;2023-03-14T13:17:39;9.15;;;0.75;;
45836;SDS011;31548;51.420;-0.040;2023-03-14T13:20:12;3.90;;;0.50;;
45836;SDS011;31548;51.420;-0.040;2023-03-14T13:23:02;6.05;;;0.65;;
45836;SDS011;31548;51.420;-0.040;2023-03-14T13:25:31;7.25;;;0.50;;
45836;SDS011;31548;51.420;-0.040;2023-03-14T13:28:00;5.85;;;0.85;;
45836;SDS011;31548;51.420;-0.040;2023-03-14T13:30:35;4.28;;;0.50;;
45836;SDS011;31548;51.420;-0.040;2023-03-14T13:33:12;3.28;;;0.40;;
45836;SDS011;31548;51.420;-0.040;2023-03-14T13:36:05;3.78;;;0.80;;
45836;SDS011;31548;51.420;-0.040;2023-03-14T13:38:33;2.22;;;0.40;;
45836;SDS011;31548;51.420;-0.040;2023-03-14T13:41:06;5.10;;;1.13;;
45836;SDS011;31548;51.420;-0.040;2023-03-14T13:43:41;7.40;;;0.60;;
45836;SDS011;31548;51.420;-0.040;2023-03-14T13:46:19;2.15;;;0.40;;
45836;SDS011;31548;51.420;-0.040;2023-03-14T13:48:56;5.30;;;0.55;;
45836;SDS011;31548;51.420;-0.040;2023-03-14T13:51:29;9.95;;;0.60;;
45836;SDS011;31548;51.420;-0.040;2023-03-14T13:54:01;5.05;;;0.80;;
45836;SDS011;31548;51.420;-0.040;2023-03-14T13:56:32;7.25;;;0.50;;
45836;SDS011;31548;51.420;-0.040;2023-03-14T13:59:00;5.70;;;0.50;;
45836;SDS011;31548;51.420;-0.040;2023-03-14T14:01:30;4.57;;;0.57;;
45836;SDS011;31548;51.420;-0.040;2023-03-14T14:04:13;3.78;;;0.60;;
45836;SDS011;31548;51.420;-0.040;2023-03-14T14:09:25;6.07;;;0.50;;
45836;SDS011;31548;51.420;-0.040;2023-03-14T14:17:27;7.72;;;0.88;;
45836;SDS011;31548;51.420;-0.040;2023-03-14T14:20:01;13.27;;;1.75;;
45836;SDS011;31548;51.420;-0.040;2023-03-14T14:22:32;2.80;;;0.30;;
45836;SDS011;31548;51.420;-0.040;2023-03-14T14:25:00;4.43;;;0.50;;
45836;SDS011;31548;51.420;-0.040;2023-03-14T14:29:59;7.95;;;0.40;;
45836;SDS011;31548;51.420;-0.040;2023-03-14T14:32:34;0.90;;;0.30;;
45836;SDS011;31548;51.420;-0.040;2023-03-14T14:35:05;5.22;;;0.55;;
45836;SDS011;31548;51.420;-0.040;2023-03-14T14:37:35;7.78;;;0.52;;
45836;SDS011;31548;51.420;-0.040;2023-03-14T14:40:13;2.22;;;0.32;;
45836;SDS011;31548;51.420;-0.040;2023-03-14T14:42:45;2.88;;;0.30;;
45836;SDS011;31548;51.420;-0.040;2023-03-14T14:45:14;4.28;;;0.60;;
45836;SDS011;31548;51.420;-0.040;2023-03-14T14:51:01;7.88;;;0.70;;
45836;SDS011;31548;51.420;-0.040;2023-03-14T14:53:41;5.47;;;0.52;;
45836;SDS011;31548;51.420;-0.040;2023-03-14T14:56:17;3.05;;;0.40;;
45836;SDS011;31548;51.420;-0.040;2023-03-14T14:59:00;2.53;;;0.45;;
45836;SDS011;31548;51.420;-0.040;2023-03-14T15:01:33;6.32;;;0.80;;
45836;SDS011;31548;51.420;-0.040;2023-03-14T15:04:10;8.70;;;0.55;;
45836;SDS011;31548;51.420;-0.040;2023-03-14T15:06:43;2.05;;;0.40;;
45836;SDS011;31548;51.420;-0.040;2023-03-14T15:09:14;1.77;;;0.45;;
45836;SDS011;31548;51.420;-0.040;2023-03-14T15:11:43;6.28;;;0.73;;
45836;SDS011;31548;51.420;-0.040;2023-03-14T15:14:11;4.00;;;0.50;;
45836;SDS011;31548;51.420;-0.040;2023-03-14T15:16:39;3.15;;;0.40;;
45836;SDS011;31548;51.420;-0.040;2023-03-14T15:19:11;2.63;;;0.57;;
45836;SDS011;31548;51.420;-0.040;2023-03-14T15:21:51;2.97;;;0.45;;
45836;SDS011;31548;51.420;-0.040;2023-03-14T15:24:20;4.18;;;0.60;;
45836;SDS011;31548;51.420;-0.040;2023-03-14T15:26:48;4.57;;;0.73;;
45836;SDS011;31548;51.420;-0.040;2023-03-14T15:29:15;7.97;;;0.80;;
45836;SDS011;31548;51.420;-0.040;2023-03-14T15:31:43;3.85;;;0.40;;
45836;SDS011;31548;51.420;-0.040;2023-03-14T15:34:10;13.00;;;0.85;;
45836;SDS011;31548;51.420;-0.040;2023-03-14T15:36:38;10.27;;;1.33;;
45836;SDS011;31548;51.420;-0.040;2023-03-14T15:39:07;4.55;;;0.50;;
45836;SDS011;31548;51.420;-0.040;2023-03-14T15:41:36;9.32;;;0.55;;
45836;SDS011;31548;51.420;-0.040;2023-03-14T15:44:04;2.08;;;0.40;;
45836;SDS011;31548;51.420;-0.040;2023-03-14T15:46:31;2.58;;;0.50;;
45836;SDS011;31548;51.420;-0.040;2023-03-14T15:48:58;4.47;;;0.50;;
45836;SDS011;31548;51.420;-0.040;2023-03-14T15:51:25;4.18;;;0.60;;
45836;SDS011;31548;51.420;-0.040;2023-03-14T15:53:52;4.13;;;0.40;;
45836;SDS011;31548;51.420;-0.040;2023-03-14T15:56:20;3.15;;;0.47;;
45836;SDS011;31548;51.420;-0.040;2023-03-14T15:58:50;1.90;;;0.40;;
45836;SDS011;31548;51.420;-0.040;2023-03-14T16:01:18;5.00;;;0.50;;
45836;SDS011;31548;51.420;-0.040;2023-03-14T16:03:45;3.15;;;0.40;;
45836;SDS011;31548;51.420;-0.040;2023-03-14T16:06:13;2.22;;;0.40;;
45836;SDS011;31548;51.420;-0.040;2023-03-14T16:08:41;1.75;;;0.30;;
45836;SDS011;31548;51.420;-0.040;2023-03-14T16:11:11;4.60;;;0.50;;
45836;SDS011;31548;51.420;-0.040;2023-03-14T16:13:41;2.30;;;0.50;;
45836;SDS011;31548;51.420;-0.040;2023-03-14T16:16:08;3.88;;;0.68;;
45836;SDS011;31548;51.420;-0.040;2023-03-14T16:18:38;3.67;;;0.40;;
45836;SDS011;31548;51.420;-0.040;2023-03-14T16:21:07;5.80;;;0.50;;
45836;SDS011;31548;51.420;-0.040;2023-03-14T16:23:39;3.97;;;0.40;;
45836;SDS011;31548;51.420;-0.040;2023-03-14T16:26:08;2.38;;;0.30;;
45836;SDS011;31548;51.420;-0.040;2023-03-14T16:28:37;2.70;;;0.65;;